createdAt,value
2022-10-11T19:03:20.495Z,100759.50
2022-10-11T19:05:47.942Z,100760.62
2022-10-11T19:08:15.093Z,100754.53
2022-10-11T19:10:42.346Z,100756.95
2022-10-11T19:13:09.499Z,100754.11
2022-10-11T19:15:36.645Z,100755.92
2022-10-11T19:18:03.901Z,100755.80
2022-10-11T19:20:31.049Z,100756.46
2022-10-11T19:22:58.402Z,100758.48
2022-10-11T19:25:25.655Z,100758.89
2022-10-11T19:27:52.907Z,100761.05
2022-10-11T19:30:20.163Z,100759.45
2022-10-11T19:32:47.414Z,100764.78
2022-10-11T19:35:19.088Z,100766.58
2022-10-11T19:37:47.141Z,100768.79
2022-10-11T19:40:14.394Z,100769.40
2022-10-11T19:42:41.551Z,100770.94
2022-10-11T19:45:09.411Z,100769.98
2022-10-11T19:47:36.562Z,100772.21
2022-10-11T19:50:04.427Z,100769.17
2022-10-11T19:52:31.747Z,100771.80
2022-10-11T19:54:59.342Z,100774.27
2022-10-11T19:57:26.494Z,100776.61
2022-10-11T19:59:53.746Z,100775.56
2022-10-11T20:02:20.895Z,100776.79
2022-10-11T20:04:53.146Z,100777.80
2022-10-11T20:07:20.933Z,100782.19
2022-10-11T20:09:48.082Z,100779.20
2022-10-11T20:12:15.231Z,100778.49
2022-10-11T20:14:42.384Z,100778.52
2022-10-11T20:17:09.537Z,100778.13
2022-10-11T20:19:36.788Z,100775.48
2022-10-11T20:22:04.037Z,100775.42
2022-10-11T20:24:33.985Z,100778.14
2022-10-11T20:27:05.108Z,100780.52
2022-10-11T20:29:32.356Z,100777.81
2022-10-11T20:31:59.599Z,100772.83
2022-10-11T20:34:27.878Z,100775.27
2022-10-11T20:36:55.029Z,100778.11
2022-10-11T20:39:22.397Z,100781.21
2022-10-11T20:41:49.636Z,100781.71
2022-10-11T20:44:18.018Z,100782.34
2022-10-11T20:46:45.165Z,100786.06
2022-10-11T20:49:12.417Z,100782.17
2022-10-11T20:51:41.630Z,100778.39
2022-10-11T20:54:09.279Z,100785.65
2022-10-11T20:56:36.431Z,100785.80
2022-10-11T20:59:03.748Z,100781.16
2022-10-11T21:01:38.889Z,100783.88
2022-10-11T21:04:06.890Z,100786.61
2022-10-11T21:06:34.040Z,100787.32
2022-10-11T21:09:02.100Z,100786.21
2022-10-11T21:11:31.379Z,100786.56
2022-10-11T21:14:00.362Z,100788.09
2022-10-11T21:16:27.790Z,100789.66
2022-10-11T21:18:55.964Z,100792.77
2022-10-11T21:21:25.876Z,100798.23
2022-10-11T21:24:11.254Z,100790.54
2022-10-11T21:26:38.403Z,100786.25
2022-10-11T21:29:05.657Z,100781.94
2022-10-11T21:31:34.258Z,100782.48
2022-10-11T21:34:02.555Z,100782.27
2022-10-11T21:36:29.760Z,100790.80
2022-10-11T21:38:56.910Z,100792.37
2022-10-11T21:41:25.802Z,100791.81
2022-10-11T21:43:53.054Z,100795.06
2022-10-11T21:46:21.125Z,100789.59
2022-10-11T21:48:50.115Z,100792.08
2022-10-11T21:51:27.816Z,100795.08
2022-10-11T21:53:56.401Z,100796.45
2022-10-11T21:56:23.979Z,100800.70
2022-10-11T21:58:51.418Z,100796.92
2022-10-11T22:01:19.036Z,100799.52
2022-10-11T22:03:46.333Z,100803.25
2022-10-11T22:06:13.585Z,100804.94
2022-10-11T22:08:41.041Z,100802.39
2022-10-11T22:11:08.807Z,100803.63
2022-10-11T22:13:36.041Z,100804.84
2022-10-11T22:16:06.981Z,100808.09
2022-10-11T22:18:34.206Z,100813.33
2022-10-11T22:21:16.540Z,100814.10
2022-10-11T22:23:45.734Z,100811.19
2022-10-11T22:26:14.472Z,100812.95
2022-10-11T22:28:41.612Z,100808.91
2022-10-11T22:31:09.644Z,100810.80
2022-10-11T22:33:36.869Z,100813.65
2022-10-11T22:36:05.909Z,100821.41
2022-10-11T22:38:33.039Z,100821.56
2022-10-11T22:41:00.288Z,100824.23
2022-10-11T22:43:27.438Z,100823.34
2022-10-11T22:45:54.844Z,100825.39
2022-10-11T22:48:22.300Z,100824.20
2022-10-11T22:50:49.494Z,100824.33
2022-10-11T22:53:16.641Z,100826.92
2022-10-11T22:55:43.790Z,100825.64
2022-10-11T22:58:11.151Z,100830.21
2022-10-11T23:00:38.302Z,100827.51
2022-10-11T23:03:07.341Z,100825.83
2022-10-11T23:05:35.259Z,100828.27
2022-10-11T23:11:24.786Z,100829.77
2022-10-11T23:13:51.936Z,100832.62
2022-10-11T23:16:19.088Z,100838.36
2022-10-11T23:18:46.235Z,100834.67
2022-10-11T23:21:13.592Z,100835.42
2022-10-11T23:23:40.842Z,100836.73
2022-10-11T23:26:10.663Z,100839.91
2022-10-11T23:28:38.070Z,100838.36
2022-10-11T23:31:16.719Z,100838.73
2022-10-11T23:33:44.805Z,100835.75
2022-10-11T23:36:20.036Z,100834.45
2022-10-11T23:38:58.165Z,100834.64
2022-10-11T23:41:27.135Z,100832.23
2022-10-11T23:43:54.285Z,100834.11
2022-10-11T23:46:21.639Z,100836.70
2022-10-11T23:48:48.790Z,100830.79
2022-10-11T23:51:15.940Z,100830.48
2022-10-11T23:53:43.090Z,100831.30
2022-10-11T23:56:10.427Z,100834.77
2022-10-11T23:58:38.185Z,100836.07
